sensor_id;sensor_type;location;lat;lon;timestamp;P1;durP1;ratioP1;P2;durP2;ratioP2
23060;SDS011;11698;47.690;9.132;2023-02-22T00:00:48;12.10;;;5.50;;
23060;SDS011;11698;47.690;9.132;2023-02-22T00:05:40;10.65;;;5.03;;
23060;SDS011;11698;47.690;9.132;2023-02-22T00:08:14;10.57;;;5.25;;
23060;SDS011;11698;47.690;9.132;2023-02-22T00:10:40;10.63;;;5.60;;
23060;SDS011;11698;47.690;9.132;2023-02-22T00:13:07;10.10;;;5.47;;
23060;SDS011;11698;47.690;9.132;2023-02-22T00:15:34;11.48;;;5.22;;
23060;SDS011;11698;47.690;9.132;2023-02-22T00:18:00;9.77;;;5.77;;
23060;SDS011;11698;47.690;9.132;2023-02-22T00:20:27;13.52;;;6.00;;
23060;SDS011;11698;47.690;9.132;2023-02-22T00:22:53;9.85;;;5.25;;
23060;SDS011;11698;47.690;9.132;2023-02-22T00:25:20;8.88;;;5.07;;
23060;SDS011;11698;47.690;9.132;2023-02-22T00:27:47;10.15;;;5.13;;
23060;SDS011;11698;47.690;9.132;2023-02-22T00:30:16;10.77;;;5.30;;
23060;SDS011;11698;47.690;9.132;2023-02-22T00:32:44;7.45;;;5.28;;
23060;SDS011;11698;47.690;9.132;2023-02-22T00:35:11;11.50;;;5.85;;
23060;SDS011;11698;47.690;9.132;2023-02-22T00:37:37;10.80;;;5.72;;
23060;SDS011;11698;47.690;9.132;2023-02-22T00:40:06;10.45;;;5.13;;
23060;SDS011;11698;47.690;9.132;2023-02-22T00:42:32;8.30;;;5.82;;
23060;SDS011;11698;47.690;9.132;2023-02-22T00:44:58;11.75;;;5.97;;
23060;SDS011;11698;47.690;9.132;2023-02-22T00:47:24;9.73;;;5.60;;
23060;SDS011;11698;47.690;9.132;2023-02-22T00:49:51;10.95;;;5.72;;
23060;SDS011;11698;47.690;9.132;2023-02-22T00:52:17;10.65;;;5.85;;
23060;SDS011;11698;47.690;9.132;2023-02-22T00:54:43;9.85;;;5.60;;
23060;SDS011;11698;47.690;9.132;2023-02-22T00:57:09;11.10;;;5.78;;
23060;SDS011;11698;47.690;9.132;2023-02-22T00:59:35;10.43;;;5.87;;
23060;SDS011;11698;47.690;9.132;2023-02-22T01:02:01;11.07;;;6.10;;
23060;SDS011;11698;47.690;9.132;2023-02-22T01:04:27;12.13;;;6.30;;
23060;SDS011;11698;47.690;9.132;2023-02-22T01:06:53;10.52;;;6.10;;
23060;SDS011;11698;47.690;9.132;2023-02-22T01:09:19;12.10;;;6.25;;
23060;SDS011;11698;47.690;9.132;2023-02-22T01:11:46;12.30;;;5.97;;
23060;SDS011;11698;47.690;9.132;2023-02-22T01:14:12;10.93;;;6.22;;
23060;SDS011;11698;47.690;9.132;2023-02-22T01:16:38;13.38;;;6.90;;
23060;SDS011;11698;47.690;9.132;2023-02-22T01:19:04;11.33;;;5.90;;
23060;SDS011;11698;47.690;9.132;2023-02-22T01:21:30;12.80;;;6.00;;
23060;SDS011;11698;47.690;9.132;2023-02-22T01:23:56;12.80;;;6.40;;
23060;SDS011;11698;47.690;9.132;2023-02-22T01:26:22;10.48;;;5.90;;
23060;SDS011;11698;47.690;9.132;2023-02-22T01:28:48;10.38;;;5.95;;
23060;SDS011;11698;47.690;9.132;2023-02-22T01:31:14;11.43;;;5.80;;
23060;SDS011;11698;47.690;9.132;2023-02-22T01:33:40;10.73;;;5.93;;
23060;SDS011;11698;47.690;9.132;2023-02-22T01:36:06;14.07;;;6.00;;
23060;SDS011;11698;47.690;9.132;2023-02-22T01:38:35;9.82;;;5.35;;
23060;SDS011;11698;47.690;9.132;2023-02-22T01:41:01;12.73;;;6.23;;
23060;SDS011;11698;47.690;9.132;2023-02-22T01:43:29;11.95;;;5.78;;
23060;SDS011;11698;47.690;9.132;2023-02-22T01:45:59;10.83;;;5.77;;
23060;SDS011;11698;47.690;9.132;2023-02-22T01:53:34;11.45;;;6.70;;
23060;SDS011;11698;47.690;9.132;2023-02-22T01:56:01;13.35;;;6.63;;
23060;SDS011;11698;47.690;9.132;2023-02-22T01:58:28;11.55;;;6.50;;
23060;SDS011;11698;47.690;9.132;2023-02-22T02:00:55;12.07;;;5.93;;
23060;SDS011;11698;47.690;9.132;2023-02-22T02:03:23;9.15;;;6.00;;
23060;SDS011;11698;47.690;9.132;2023-02-22T02:05:51;10.10;;;6.22;;
23060;SDS011;11698;47.690;9.132;2023-02-22T02:08:30;11.57;;;6.43;;
23060;SDS011;11698;47.690;9.132;2023-02-22T02:11:00;8.77;;;5.70;;
23060;SDS011;11698;47.690;9.132;2023-02-22T02:13:26;10.35;;;5.85;;
23060;SDS011;11698;47.690;9.132;2023-02-22T02:15:56;10.85;;;5.95;;
23060;SDS011;11698;47.690;9.132;2023-02-22T02:18:22;12.75;;;6.50;;
23060;SDS011;11698;47.690;9.132;2023-02-22T02:29:01;12.43;;;6.40;;
23060;SDS011;11698;47.690;9.132;2023-02-22T02:36:50;9.98;;;6.20;;
23060;SDS011;11698;47.690;9.132;2023-02-22T02:39:27;10.45;;;6.30;;
23060;SDS011;11698;47.690;9.132;2023-02-22T02:41:54;11.25;;;6.43;;
23060;SDS011;11698;47.690;9.132;2023-02-22T02:46:51;10.87;;;6.47;;
23060;SDS011;11698;47.690;9.132;2023-02-22T02:49:21;11.93;;;6.57;;
23060;SDS011;11698;47.690;9.132;2023-02-22T02:51:51;12.68;;;6.53;;
23060;SDS011;11698;47.690;9.132;2023-02-22T02:54:17;10.95;;;6.15;;
23060;SDS011;11698;47.690;9.132;2023-02-22T02:56:45;10.25;;;6.20;;
23060;SDS011;11698;47.690;9.132;2023-02-22T02:59:44;10.55;;;6.45;;
23060;SDS011;11698;47.690;9.132;2023-02-22T03:07:05;12.52;;;6.75;;
23060;SDS011;11698;47.690;9.132;2023-02-22T03:09:52;13.48;;;6.57;;
23060;SDS011;11698;47.690;9.132;2023-02-22T03:12:29;13.75;;;6.90;;
23060;SDS011;11698;47.690;9.132;2023-02-22T03:15:13;11.93;;;7.10;;
23060;SDS011;11698;47.690;9.132;2023-02-22T03:20:11;15.15;;;7.45;;
23060;SDS011;11698;47.690;9.132;2023-02-22T03:22:49;12.45;;;6.53;;
23060;SDS011;11698;47.690;9.132;2023-02-22T03:25:29;13.15;;;6.70;;
23060;SDS011;11698;47.690;9.132;2023-02-22T03:27:59;11.10;;;6.50;;
23060;SDS011;11698;47.690;9.132;2023-02-22T03:30:30;14.00;;;7.28;;
23060;SDS011;11698;47.690;9.132;2023-02-22T03:33:00;9.20;;;6.18;;
23060;SDS011;11698;47.690;9.132;2023-02-22T03:35:30;13.63;;;7.03;;
23060;SDS011;11698;47.690;9.132;2023-02-22T03:38:01;12.68;;;7.55;;
23060;SDS011;11698;47.690;9.132;2023-02-22T03:40:30;11.15;;;6.20;;
23060;SDS011;11698;47.690;9.132;2023-02-22T03:43:04;12.43;;;7.10;;
23060;SDS011;11698;47.690;9.132;2023-02-22T03:45:31;12.77;;;6.65;;
23060;SDS011;11698;47.690;9.132;2023-02-22T03:50:47;14.20;;;6.78;;
23060;SDS011;11698;47.690;9.132;2023-02-22T03:53:13;11.82;;;6.82;;
23060;SDS011;11698;47.690;9.132;2023-02-22T03:55:40;11.93;;;6.60;;
23060;SDS011;11698;47.690;9.132;2023-02-22T03:58:08;13.35;;;6.90;;
23060;SDS011;11698;47.690;9.132;2023-02-22T04:00:35;14.00;;;6.97;;
23060;SDS011;11698;47.690;9.132;2023-02-22T04:03:01;11.23;;;6.50;;
23060;SDS011;11698;47.690;9.132;2023-02-22T04:05:27;13.88;;;6.38;;
23060;SDS011;11698;47.690;9.132;2023-02-22T04:07:54;13.53;;;6.90;;
23060;SDS011;11698;47.690;9.132;2023-02-22T04:10:20;10.87;;;6.93;;
23060;SDS011;11698;47.690;9.132;2023-02-22T04:12:47;11.60;;;6.53;;
23060;SDS011;11698;47.690;9.132;2023-02-22T04:15:15;11.10;;;7.10;;
23060;SDS011;11698;47.690;9.132;2023-02-22T04:17:41;10.87;;;7.00;;
23060;SDS011;11698;47.690;9.132;2023-02-22T04:20:07;12.52;;;7.15;;
23060;SDS011;11698;47.690;9.132;2023-02-22T04:22:34;13.55;;;7.35;;
23060;SDS011;11698;47.690;9.132;2023-02-22T04:24:59;12.43;;;7.63;;
23060;SDS011;11698;47.690;9.132;2023-02-22T04:27:25;11.57;;;6.80;;
23060;SDS011;11698;47.690;9.132;2023-02-22T04:29:51;10.63;;;6.75;;
23060;SDS011;11698;47.690;9.132;2023-02-22T04:32:17;13.40;;;6.85;;
23060;SDS011;11698;47.690;9.132;2023-02-22T04:34:43;11.85;;;6.53;;
23060;SDS011;11698;47.690;9.132;2023-02-22T04:37:09;12.85;;;6.95;;
23060;SDS011;11698;47.690;9.132;2023-02-22T04:39:36;13.65;;;6.93;;
23060;SDS011;11698;47.690;9.132;2023-02-22T04:42:02;13.67;;;7.67;;
23060;SDS011;11698;47.690;9.132;2023-02-22T04:44:29;10.52;;;6.75;;
23060;SDS011;11698;47.690;9.132;2023-02-22T04:46:55;14.20;;;7.43;;
23060;SDS011;11698;47.690;9.132;2023-02-22T04:49:21;11.98;;;6.95;;
23060;SDS011;11698;47.690;9.132;2023-02-22T04:51:47;12.30;;;6.95;;
23060;SDS011;11698;47.690;9.132;2023-02-22T04:54:13;14.60;;;7.22;;
23060;SDS011;11698;47.690;9.132;2023-02-22T04:56:41;13.10;;;7.67;;
23060;SDS011;11698;47.690;9.132;2023-02-22T04:59:07;14.25;;;7.47;;
23060;SDS011;11698;47.690;9.132;2023-02-22T05:01:34;14.20;;;8.63;;
23060;SDS011;11698;47.690;9.132;2023-02-22T05:04:03;14.30;;;8.50;;
23060;SDS011;11698;47.690;9.132;2023-02-22T05:06:30;12.53;;;7.07;;
23060;SDS011;11698;47.690;9.132;2023-02-22T05:08:56;14.80;;;7.32;;
23060;SDS011;11698;47.690;9.132;2023-02-22T05:11:22;14.02;;;8.27;;
23060;SDS011;11698;47.690;9.132;2023-02-22T05:13:48;13.23;;;8.23;;
23060;SDS011;11698;47.690;9.132;2023-02-22T05:16:14;16.65;;;8.70;;
23060;SDS011;11698;47.690;9.132;2023-02-22T05:18:40;16.95;;;9.13;;
23060;SDS011;11698;47.690;9.132;2023-02-22T05:21:06;18.33;;;9.80;;
23060;SDS011;11698;47.690;9.132;2023-02-22T05:23:32;16.83;;;9.52;;
23060;SDS011;11698;47.690;9.132;2023-02-22T05:25:58;16.38;;;9.45;;
23060;SDS011;11698;47.690;9.132;2023-02-22T05:28:25;12.70;;;7.10;;
23060;SDS011;11698;47.690;9.132;2023-02-22T05:30:51;12.85;;;7.55;;
23060;SDS011;11698;47.690;9.132;2023-02-22T05:33:17;11.73;;;7.22;;
23060;SDS011;11698;47.690;9.132;2023-02-22T05:35:43;13.05;;;7.45;;
23060;SDS011;11698;47.690;9.132;2023-02-22T05:38:11;16.23;;;7.88;;
23060;SDS011;11698;47.690;9.132;2023-02-22T05:40:39;11.88;;;7.60;;
23060;SDS011;11698;47.690;9.132;2023-02-22T05:43:05;15.05;;;7.50;;
23060;SDS011;11698;47.690;9.132;2023-02-22T05:45:31;10.45;;;7.30;;
23060;SDS011;11698;47.690;9.132;2023-02-22T05:47:57;12.23;;;7.60;;
23060;SDS011;11698;47.690;9.132;2023-02-22T05:50:23;11.63;;;7.43;;
23060;SDS011;11698;47.690;9.132;2023-02-22T05:52:50;11.77;;;7.18;;
23060;SDS011;11698;47.690;9.132;2023-02-22T05:55:17;13.73;;;7.63;;
23060;SDS011;11698;47.690;9.132;2023-02-22T05:57:43;15.27;;;8.00;;
23060;SDS011;11698;47.690;9.132;2023-02-22T06:00:13;14.05;;;7.97;;
23060;SDS011;11698;47.690;9.132;2023-02-22T06:02:40;11.27;;;6.80;;
23060;SDS011;11698;47.690;9.132;2023-02-22T06:05:06;11.27;;;6.83;;
23060;SDS011;11698;47.690;9.132;2023-02-22T06:07:32;13.55;;;7.43;;
23060;SDS011;11698;47.690;9.132;2023-02-22T06:09:58;12.95;;;7.10;;
23060;SDS011;11698;47.690;9.132;2023-02-22T06:12:24;10.90;;;6.85;;
23060;SDS011;11698;47.690;9.132;2023-02-22T06:14:51;11.48;;;6.22;;
23060;SDS011;11698;47.690;9.132;2023-02-22T06:17:17;13.98;;;7.13;;
23060;SDS011;11698;47.690;9.132;2023-02-22T06:19:43;11.88;;;6.45;;
23060;SDS011;11698;47.690;9.132;2023-02-22T06:22:16;13.07;;;7.22;;
23060;SDS011;11698;47.690;9.132;2023-02-22T06:24:42;12.57;;;6.88;;
23060;SDS011;11698;47.690;9.132;2023-02-22T06:27:08;11.95;;;5.95;;
23060;SDS011;11698;47.690;9.132;2023-02-22T06:29:34;12.30;;;6.60;;
23060;SDS011;11698;47.690;9.132;2023-02-22T06:32:00;11.05;;;6.72;;
23060;SDS011;11698;47.690;9.132;2023-02-22T06:34:26;11.65;;;6.47;;
23060;SDS011;11698;47.690;9.132;2023-02-22T06:36:52;11.73;;;6.28;;
23060;SDS011;11698;47.690;9.132;2023-02-22T06:39:18;11.40;;;6.25;;
23060;SDS011;11698;47.690;9.132;2023-02-22T06:41:45;11.23;;;6.68;;
23060;SDS011;11698;47.690;9.132;2023-02-22T06:44:12;9.38;;;6.18;;
23060;SDS011;11698;47.690;9.132;2023-02-22T06:46:38;10.88;;;6.63;;
23060;SDS011;11698;47.690;9.132;2023-02-22T06:49:04;12.07;;;7.13;;
23060;SDS011;11698;47.690;9.132;2023-02-22T06:51:34;12.17;;;6.73;;
23060;SDS011;11698;47.690;9.132;2023-02-22T06:54:01;10.20;;;6.30;;
23060;SDS011;11698;47.690;9.132;2023-02-22T06:56:28;11.43;;;6.80;;
23060;SDS011;11698;47.690;9.132;2023-02-22T06:58:54;13.97;;;6.60;;
23060;SDS011;11698;47.690;9.132;2023-02-22T07:01:20;10.40;;;6.40;;
23060;SDS011;11698;47.690;9.132;2023-02-22T07:03:47;10.03;;;6.40;;
23060;SDS011;11698;47.690;9.132;2023-02-22T07:06:13;10.65;;;6.25;;
23060;SDS011;11698;47.690;9.132;2023-02-22T07:08:39;12.20;;;6.38;;
23060;SDS011;11698;47.690;9.132;2023-02-22T07:11:05;10.32;;;6.30;;
23060;SDS011;11698;47.690;9.132;2023-02-22T07:13:31;10.63;;;7.07;;
23060;SDS011;11698;47.690;9.132;2023-02-22T07:15:57;10.87;;;6.07;;
23060;SDS011;11698;47.690;9.132;2023-02-22T07:18:23;11.70;;;6.90;;
23060;SDS011;11698;47.690;9.132;2023-02-22T07:20:50;12.00;;;6.82;;
23060;SDS011;11698;47.690;9.132;2023-02-22T07:23:16;12.93;;;6.50;;
23060;SDS011;11698;47.690;9.132;2023-02-22T07:25:42;11.75;;;6.65;;
23060;SDS011;11698;47.690;9.132;2023-02-22T07:28:08;11.10;;;6.23;;
23060;SDS011;11698;47.690;9.132;2023-02-22T07:30:37;12.13;;;6.45;;
23060;SDS011;11698;47.690;9.132;2023-02-22T07:33:04;10.00;;;6.82;;
23060;SDS011;11698;47.690;9.132;2023-02-22T07:35:31;9.80;;;6.35;;
23060;SDS011;11698;47.690;9.132;2023-02-22T07:38:00;12.43;;;7.00;;
23060;SDS011;11698;47.690;9.132;2023-02-22T07:40:27;10.95;;;6.45;;
23060;SDS011;11698;47.690;9.132;2023-02-22T07:42:54;9.32;;;6.18;;
23060;SDS011;11698;47.690;9.132;2023-02-22T07:45:20;11.45;;;7.22;;
23060;SDS011;11698;47.690;9.132;2023-02-22T07:47:47;11.80;;;6.80;;
23060;SDS011;11698;47.690;9.132;2023-02-22T07:50:14;11.30;;;6.57;;
23060;SDS011;11698;47.690;9.132;2023-02-22T07:52:43;11.95;;;6.40;;
23060;SDS011;11698;47.690;9.132;2023-02-22T07:55:09;12.80;;;6.85;;
23060;SDS011;11698;47.690;9.132;2023-02-22T07:57:35;11.77;;;6.95;;
23060;SDS011;11698;47.690;9.132;2023-02-22T08:00:02;12.15;;;7.15;;
23060;SDS011;11698;47.690;9.132;2023-02-22T08:02:29;11.80;;;7.38;;
23060;SDS011;11698;47.690;9.132;2023-02-22T08:04:55;14.98;;;8.10;;
23060;SDS011;11698;47.690;9.132;2023-02-22T08:07:21;15.02;;;8.38;;
23060;SDS011;11698;47.690;9.132;2023-02-22T08:09:47;12.52;;;8.25;;
23060;SDS011;11698;47.690;9.132;2023-02-22T08:12:13;13.90;;;8.65;;
23060;SDS011;11698;47.690;9.132;2023-02-22T08:14:40;15.52;;;9.00;;
23060;SDS011;11698;47.690;9.132;2023-02-22T08:17:06;15.23;;;8.25;;
23060;SDS011;11698;47.690;9.132;2023-02-22T08:19:33;12.52;;;7.53;;
23060;SDS011;11698;47.690;9.132;2023-02-22T08:21:59;26.30;;;13.50;;
23060;SDS011;11698;47.690;9.132;2023-02-22T08:24:25;52.10;;;24.42;;
23060;SDS011;11698;47.690;9.132;2023-02-22T08:26:51;19.30;;;12.13;;
23060;SDS011;11698;47.690;9.132;2023-02-22T08:29:17;24.95;;;12.73;;
23060;SDS011;11698;47.690;9.132;2023-02-22T08:31:48;16.00;;;9.52;;
23060;SDS011;11698;47.690;9.132;2023-02-22T08:34:14;27.33;;;13.43;;
23060;SDS011;11698;47.690;9.132;2023-02-22T08:36:41;21.80;;;11.65;;
23060;SDS011;11698;47.690;9.132;2023-02-22T08:39:07;23.77;;;11.18;;
23060;SDS011;11698;47.690;9.132;2023-02-22T08:41:33;19.70;;;10.20;;
23060;SDS011;11698;47.690;9.132;2023-02-22T08:43:59;12.52;;;8.00;;
23060;SDS011;11698;47.690;9.132;2023-02-22T08:46:26;20.40;;;10.60;;
23060;SDS011;11698;47.690;9.132;2023-02-22T08:48:52;13.38;;;8.48;;
23060;SDS011;11698;47.690;9.132;2023-02-22T08:51:18;13.52;;;7.68;;
23060;SDS011;11698;47.690;9.132;2023-02-22T08:53:45;13.30;;;8.80;;
23060;SDS011;11698;47.690;9.132;2023-02-22T08:56:11;13.07;;;8.18;;
23060;SDS011;11698;47.690;9.132;2023-02-22T08:58:37;13.77;;;8.83;;
23060;SDS011;11698;47.690;9.132;2023-02-22T09:01:03;13.17;;;8.30;;
23060;SDS011;11698;47.690;9.132;2023-02-22T09:03:29;12.50;;;7.93;;
23060;SDS011;11698;47.690;9.132;2023-02-22T09:05:55;12.90;;;8.00;;
23060;SDS011;11698;47.690;9.132;2023-02-22T09:08:23;12.23;;;7.55;;
23060;SDS011;11698;47.690;9.132;2023-02-22T09:10:49;13.73;;;8.25;;
23060;SDS011;11698;47.690;9.132;2023-02-22T09:13:15;11.85;;;7.80;;
23060;SDS011;11698;47.690;9.132;2023-02-22T09:15:41;12.02;;;7.78;;
23060;SDS011;11698;47.690;9.132;2023-02-22T09:18:08;12.73;;;8.45;;
23060;SDS011;11698;47.690;9.132;2023-02-22T09:20:35;13.00;;;8.23;;
23060;SDS011;11698;47.690;9.132;2023-02-22T09:23:02;13.75;;;8.23;;
23060;SDS011;11698;47.690;9.132;2023-02-22T09:25:28;13.65;;;8.10;;
23060;SDS011;11698;47.690;9.132;2023-02-22T09:27:54;14.82;;;9.32;;
23060;SDS011;11698;47.690;9.132;2023-02-22T09:30:39;13.82;;;9.10;;
23060;SDS011;11698;47.690;9.132;2023-02-22T09:33:06;13.35;;;9.05;;
23060;SDS011;11698;47.690;9.132;2023-02-22T09:35:36;15.38;;;9.43;;
23060;SDS011;11698;47.690;9.132;2023-02-22T09:38:06;13.95;;;9.38;;
23060;SDS011;11698;47.690;9.132;2023-02-22T09:40:32;17.20;;;9.77;;
23060;SDS011;11698;47.690;9.132;2023-02-22T09:48:21;14.40;;;9.27;;
23060;SDS011;11698;47.690;9.132;2023-02-22T09:50:50;16.15;;;9.68;;
23060;SDS011;11698;47.690;9.132;2023-02-22T09:53:22;15.30;;;9.60;;
23060;SDS011;11698;47.690;9.132;2023-02-22T09:55:57;17.35;;;9.95;;
23060;SDS011;11698;47.690;9.132;2023-02-22T09:58:25;17.58;;;10.15;;
23060;SDS011;11698;47.690;9.132;2023-02-22T10:00:58;15.70;;;10.02;;
23060;SDS011;11698;47.690;9.132;2023-02-22T10:03:31;18.13;;;9.95;;
23060;SDS011;11698;47.690;9.132;2023-02-22T10:06:09;16.35;;;9.63;;
23060;SDS011;11698;47.690;9.132;2023-02-22T10:08:35;14.70;;;10.38;;
23060;SDS011;11698;47.690;9.132;2023-02-22T10:13:45;17.30;;;10.27;;
23060;SDS011;11698;47.690;9.132;2023-02-22T10:18:57;16.03;;;10.47;;
23060;SDS011;11698;47.690;9.132;2023-02-22T10:26:44;16.25;;;10.15;;
23060;SDS011;11698;47.690;9.132;2023-02-22T10:31:39;16.48;;;10.02;;
23060;SDS011;11698;47.690;9.132;2023-02-22T10:34:16;17.70;;;9.97;;
23060;SDS011;11698;47.690;9.132;2023-02-22T10:36:44;19.43;;;10.60;;
23060;SDS011;11698;47.690;9.132;2023-02-22T10:41:37;18.03;;;9.90;;
23060;SDS011;11698;47.690;9.132;2023-02-22T10:44:05;14.80;;;9.75;;
23060;SDS011;11698;47.690;9.132;2023-02-22T10:46:32;18.02;;;10.40;;
23060;SDS011;11698;47.690;9.132;2023-02-22T10:49:00;16.73;;;10.43;;
23060;SDS011;11698;47.690;9.132;2023-02-22T10:51:28;18.15;;;10.10;;
23060;SDS011;11698;47.690;9.132;2023-02-22T10:54:40;17.98;;;10.18;;
23060;SDS011;11698;47.690;9.132;2023-02-22T10:56:47;14.85;;;9.98;;
23060;SDS011;11698;47.690;9.132;2023-02-22T10:59:34;16.50;;;10.25;;
23060;SDS011;11698;47.690;9.132;2023-02-22T11:02:07;17.57;;;10.50;;
23060;SDS011;11698;47.690;9.132;2023-02-22T11:04:53;15.27;;;10.02;;
23060;SDS011;11698;47.690;9.132;2023-02-22T11:09:53;17.35;;;9.80;;
23060;SDS011;11698;47.690;9.132;2023-02-22T11:14:52;17.10;;;10.55;;
23060;SDS011;11698;47.690;9.132;2023-02-22T11:17:31;19.40;;;9.82;;
23060;SDS011;11698;47.690;9.132;2023-02-22T11:19:58;16.98;;;9.93;;
23060;SDS011;11698;47.690;9.132;2023-02-22T11:22:26;15.00;;;9.80;;
23060;SDS011;11698;47.690;9.132;2023-02-22T11:24:55;17.88;;;10.07;;
23060;SDS011;11698;47.690;9.132;2023-02-22T11:30:19;16.65;;;10.02;;
23060;SDS011;11698;47.690;9.132;2023-02-22T11:32:47;16.30;;;9.70;;
23060;SDS011;11698;47.690;9.132;2023-02-22T11:35:18;15.35;;;9.48;;
23060;SDS011;11698;47.690;9.132;2023-02-22T11:37:44;12.80;;;9.40;;
23060;SDS011;11698;47.690;9.132;2023-02-22T11:42:42;12.95;;;8.75;;
23060;SDS011;11698;47.690;9.132;2023-02-22T11:45:09;13.77;;;9.48;;
23060;SDS011;11698;47.690;9.132;2023-02-22T11:47:57;15.15;;;9.65;;
23060;SDS011;11698;47.690;9.132;2023-02-22T11:52:59;13.68;;;8.75;;
23060;SDS011;11698;47.690;9.132;2023-02-22T11:55:31;12.63;;;8.48;;
23060;SDS011;11698;47.690;9.132;2023-02-22T12:03:03;10.63;;;8.07;;
23060;SDS011;11698;47.690;9.132;2023-02-22T12:18:22;10.60;;;8.50;;
23060;SDS011;11698;47.690;9.132;2023-02-22T12:20:51;11.05;;;7.70;;
23060;SDS011;11698;47.690;9.132;2023-02-22T12:28:24;10.75;;;7.40;;
23060;SDS011;11698;47.690;9.132;2023-02-22T12:30:54;11.45;;;8.13;;
23060;SDS011;11698;47.690;9.132;2023-02-22T12:33:23;10.35;;;7.32;;
23060;SDS011;11698;47.690;9.132;2023-02-22T12:35:51;12.35;;;7.53;;
23060;SDS011;11698;47.690;9.132;2023-02-22T12:38:38;10.20;;;7.57;;
23060;SDS011;11698;47.690;9.132;2023-02-22T12:43:44;10.32;;;7.35;;
23060;SDS011;11698;47.690;9.132;2023-02-22T12:46:12;11.50;;;7.88;;
23060;SDS011;11698;47.690;9.132;2023-02-22T12:48:44;12.25;;;8.05;;
23060;SDS011;11698;47.690;9.132;2023-02-22T12:53:39;14.35;;;8.05;;
23060;SDS011;11698;47.690;9.132;2023-02-22T12:58:48;10.82;;;7.40;;
23060;SDS011;11698;47.690;9.132;2023-02-22T13:01:19;11.68;;;7.63;;
23060;SDS011;11698;47.690;9.132;2023-02-22T13:03:46;10.80;;;7.40;;
23060;SDS011;11698;47.690;9.132;2023-02-22T13:08:58;9.25;;;5.22;;
23060;SDS011;11698;47.690;9.132;2023-02-22T13:16:51;9.68;;;5.75;;
23060;SDS011;11698;47.690;9.132;2023-02-22T13:21:48;10.50;;;6.57;;
23060;SDS011;11698;47.690;9.132;2023-02-22T13:24:24;11.18;;;7.57;;
23060;SDS011;11698;47.690;9.132;2023-02-22T13:29:33;11.27;;;8.00;;
23060;SDS011;11698;47.690;9.132;2023-02-22T13:32:22;13.20;;;6.83;;
23060;SDS011;11698;47.690;9.132;2023-02-22T13:34:58;10.63;;;6.18;;
23060;SDS011;11698;47.690;9.132;2023-02-22T13:48:21;9.48;;;6.50;;
23060;SDS011;11698;47.690;9.132;2023-02-22T13:53:38;9.00;;;5.85;;
23060;SDS011;11698;47.690;9.132;2023-02-22T13:56:08;7.30;;;4.32;;
23060;SDS011;11698;47.690;9.132;2023-02-22T13:58:45;7.68;;;4.43;;
23060;SDS011;11698;47.690;9.132;2023-02-22T14:01:33;8.47;;;4.63;;
23060;SDS011;11698;47.690;9.132;2023-02-22T14:06:42;7.10;;;3.72;;
23060;SDS011;11698;47.690;9.132;2023-02-22T14:09:13;7.38;;;4.18;;
23060;SDS011;11698;47.690;9.132;2023-02-22T14:11:43;6.35;;;4.35;;
23060;SDS011;11698;47.690;9.132;2023-02-22T14:14:10;6.07;;;3.95;;
23060;SDS011;11698;47.690;9.132;2023-02-22T14:16:36;4.53;;;3.00;;
23060;SDS011;11698;47.690;9.132;2023-02-22T14:19:03;5.32;;;3.67;;
23060;SDS011;11698;47.690;9.132;2023-02-22T14:21:31;5.67;;;3.20;;
23060;SDS011;11698;47.690;9.132;2023-02-22T14:24:12;5.00;;;3.63;;
23060;SDS011;11698;47.690;9.132;2023-02-22T14:26:39;5.80;;;3.63;;
23060;SDS011;11698;47.690;9.132;2023-02-22T14:34:19;8.38;;;5.50;;
23060;SDS011;11698;47.690;9.132;2023-02-22T14:36:47;4.18;;;2.50;;
23060;SDS011;11698;47.690;9.132;2023-02-22T14:44:26;7.78;;;3.72;;
23060;SDS011;11698;47.690;9.132;2023-02-22T14:46:54;8.00;;;3.60;;
23060;SDS011;11698;47.690;9.132;2023-02-22T14:49:21;5.50;;;3.80;;
23060;SDS011;11698;47.690;9.132;2023-02-22T14:51:50;6.18;;;3.40;;
23060;SDS011;11698;47.690;9.132;2023-02-22T14:54:28;4.43;;;3.10;;
23060;SDS011;11698;47.690;9.132;2023-02-22T14:57:04;5.25;;;3.90;;
23060;SDS011;11698;47.690;9.132;2023-02-22T15:00:12;5.93;;;3.50;;
23060;SDS011;11698;47.690;9.132;2023-02-22T15:02:43;7.70;;;3.25;;
23060;SDS011;11698;47.690;9.132;2023-02-22T15:05:11;4.93;;;3.78;;
23060;SDS011;11698;47.690;9.132;2023-02-22T15:07:38;4.80;;;3.03;;
23060;SDS011;11698;47.690;9.132;2023-02-22T15:10:05;4.47;;;3.17;;
23060;SDS011;11698;47.690;9.132;2023-02-22T15:12:31;5.88;;;3.78;;
23060;SDS011;11698;47.690;9.132;2023-02-22T15:15:12;4.35;;;2.72;;
23060;SDS011;11698;47.690;9.132;2023-02-22T15:17:38;6.65;;;3.80;;
23060;SDS011;11698;47.690;9.132;2023-02-22T15:20:06;7.22;;;3.58;;
23060;SDS011;11698;47.690;9.132;2023-02-22T15:22:34;5.10;;;3.38;;
23060;SDS011;11698;47.690;9.132;2023-02-22T15:25:03;7.38;;;4.18;;
23060;SDS011;11698;47.690;9.132;2023-02-22T15:27:29;5.90;;;4.97;;
23060;SDS011;11698;47.690;9.132;2023-02-22T15:30:01;7.72;;;4.60;;
23060;SDS011;11698;47.690;9.132;2023-02-22T15:32:30;6.10;;;4.13;;
23060;SDS011;11698;47.690;9.132;2023-02-22T15:37:38;6.55;;;4.15;;
23060;SDS011;11698;47.690;9.132;2023-02-22T15:40:10;6.47;;;4.07;;
23060;SDS011;11698;47.690;9.132;2023-02-22T15:42:42;7.15;;;3.97;;
23060;SDS011;11698;47.690;9.132;2023-02-22T15:45:12;5.55;;;3.67;;
23060;SDS011;11698;47.690;9.132;2023-02-22T15:47:39;4.10;;;2.30;;
23060;SDS011;11698;47.690;9.132;2023-02-22T15:50:15;3.75;;;2.80;;
23060;SDS011;11698;47.690;9.132;2023-02-22T15:52:45;9.20;;;4.53;;
23060;SDS011;11698;47.690;9.132;2023-02-22T15:55:14;8.68;;;4.07;;
23060;SDS011;11698;47.690;9.132;2023-02-22T15:57:40;7.03;;;4.32;;
23060;SDS011;11698;47.690;9.132;2023-02-22T16:00:07;6.88;;;4.93;;
23060;SDS011;11698;47.690;9.132;2023-02-22T16:02:43;5.18;;;3.58;;
23060;SDS011;11698;47.690;9.132;2023-02-22T16:05:10;7.07;;;4.32;;
23060;SDS011;11698;47.690;9.132;2023-02-22T16:07:38;8.60;;;4.18;;
23060;SDS011;11698;47.690;9.132;2023-02-22T16:10:15;7.40;;;5.05;;
23060;SDS011;11698;47.690;9.132;2023-02-22T16:12:45;7.53;;;4.53;;
23060;SDS011;11698;47.690;9.132;2023-02-22T16:15:18;7.90;;;3.92;;
23060;SDS011;11698;47.690;9.132;2023-02-22T16:17:44;6.03;;;3.17;;
23060;SDS011;11698;47.690;9.132;2023-02-22T16:22:38;7.90;;;4.40;;
23060;SDS011;11698;47.690;9.132;2023-02-22T16:27:47;8.07;;;5.50;;
23060;SDS011;11698;47.690;9.132;2023-02-22T16:32:45;8.68;;;5.03;;
23060;SDS011;11698;47.690;9.132;2023-02-22T16:35:12;9.25;;;5.68;;
23060;SDS011;11698;47.690;9.132;2023-02-22T16:37:45;10.68;;;6.28;;
23060;SDS011;11698;47.690;9.132;2023-02-22T16:40:20;8.73;;;5.53;;
23060;SDS011;11698;47.690;9.132;2023-02-22T16:42:47;9.03;;;6.27;;
23060;SDS011;11698;47.690;9.132;2023-02-22T16:45:19;9.85;;;6.15;;
23060;SDS011;11698;47.690;9.132;2023-02-22T16:47:46;9.20;;;5.50;;
23060;SDS011;11698;47.690;9.132;2023-02-22T16:50:17;11.97;;;6.90;;
23060;SDS011;11698;47.690;9.132;2023-02-22T16:52:43;14.35;;;7.85;;
23060;SDS011;11698;47.690;9.132;2023-02-22T16:55:10;9.13;;;5.80;;
23060;SDS011;11698;47.690;9.132;2023-02-22T16:57:37;10.55;;;6.30;;
23060;SDS011;11698;47.690;9.132;2023-02-22T17:00:04;11.43;;;7.45;;
23060;SDS011;11698;47.690;9.132;2023-02-22T17:02:32;10.57;;;6.53;;
23060;SDS011;11698;47.690;9.132;2023-02-22T17:04:58;11.65;;;6.53;;
23060;SDS011;11698;47.690;9.132;2023-02-22T17:07:24;11.40;;;6.37;;
23060;SDS011;11698;47.690;9.132;2023-02-22T17:09:55;10.82;;;6.30;;
23060;SDS011;11698;47.690;9.132;2023-02-22T17:12:28;11.30;;;6.82;;